Time;durP1;ratioP1;P1;durP2;ratioP2;P2;SDS_P1;SDS_P2;PMS_P1;PMS_P2;Temp;Humidity;BMP_temperature;BMP_pressure;BME280_temperature;BME280_humidity;BME280_pressure;Samples;Min_cycle;Max_cycle;Signal;HPM_P1;HPM_P2
2023/12/14 00:00:01;;;;;;;7.88;4.38;;;;;;;4.58;100.00;100020.84;5056190;28;19976;-81
2023/12/14 00:02:31;;;;;;;5.75;3.80;;;;;;;4.54;100.00;100032.94;5033192;28;20064;-84
2023/12/14 00:04:58;;;;;;;4.75;3.92;;;;;;;4.56;100.00;100038.09;5052959;28;20045;-82
2023/12/14 00:07:25;;;;;;;7.55;5.53;;;;;;;4.52;100.00;100044.13;5040480;28;20052;-82
2023/12/14 00:09:52;;;;;;;7.07;5.20;;;;;;;4.38;100.00;100044.94;5058440;28;20550;-83
2023/12/14 00:12:18;;;;;;;7.15;5.03;;;;;;;4.40;100.00;100053.56;5046948;28;20051;-83
2023/12/14 00:14:45;;;;;;;5.97;4.95;;;;;;;4.41;100.00;100054.44;5033761;28;20049;-83
2023/12/14 00:17:15;;;;;;;8.65;5.97;;;;;;;4.32;100.00;100060.44;5028401;28;20531;-84
2023/12/14 00:19:42;;;;;;;6.03;5.05;;;;;;;4.38;100.00;100063.06;5031215;28;20155;-83
2023/12/14 00:22:11;;;;;;;6.15;4.78;;;;;;;4.48;100.00;100069.16;5034949;28;20041;-82
2023/12/14 00:24:38;;;;;;;6.50;4.47;;;;;;;4.42;100.00;100072.59;5038938;28;20461;-84
2023/12/14 00:27:05;;;;;;;8.48;5.07;;;;;;;4.42;100.00;100066.53;5028926;28;20044;-84
2023/12/14 00:29:32;;;;;;;6.57;5.32;;;;;;;4.32;100.00;100072.53;5033071;28;20055;-84
2023/12/14 00:31:59;;;;;;;8.55;5.55;;;;;;;4.25;100.00;100084.53;5024361;28;20049;-83
2023/12/14 00:34:29;;;;;;;9.18;5.68;;;;;;;4.21;100.00;100086.28;5029560;28;20041;-83
2023/12/14 00:36:58;;;;;;;9.02;6.85;;;;;;;4.13;100.00;100093.97;5029474;28;20049;-83
2023/12/14 00:39:24;;;;;;;6.85;5.70;;;;;;;4.21;100.00;100096.63;5031085;28;20656;-83
2023/12/14 00:41:52;;;;;;;7.47;4.72;;;;;;;4.27;100.00;100095.81;5040326;28;20052;-83
2023/12/14 00:47:04;;;;;;;8.55;5.45;;;;;;;4.32;100.00;100108.81;5040004;28;20054;-82
2023/12/14 00:49:31;;;;;;;7.22;5.00;;;;;;;4.10;100.00;100106.03;5046753;28;20061;-83
2023/12/14 00:52:02;;;;;;;8.63;5.40;;;;;;;4.29;100.00;100114.84;5008520;28;20045;-83
2023/12/14 00:54:31;;;;;;;7.47;5.25;;;;;;;4.47;100.00;100121.84;5042423;28;20094;-84
2023/12/14 00:56:57;;;;;;;6.88;4.40;;;;;;;4.52;100.00;100137.44;5046116;28;20049;-82
2023/12/14 00:59:24;;;;;;;6.65;4.85;;;;;;;4.34;100.00;100136.47;5044629;28;20508;-82
2023/12/14 01:01:51;;;;;;;5.25;4.65;;;;;;;4.37;100.00;100144.25;5023774;28;20160;-82
2023/12/14 01:04:17;;;;;;;6.57;4.57;;;;;;;4.48;100.00;100152.09;5040074;28;20134;-82
2023/12/14 01:06:44;;;;;;;9.23;4.40;;;;;;;4.42;100.00;100150.34;5044179;28;20048;-83
2023/12/14 01:09:10;;;;;;;7.20;5.68;;;;;;;4.40;100.00;100154.63;5044006;28;20123;-83
2023/12/14 01:11:40;;;;;;;7.13;4.95;;;;;;;4.33;100.00;100155.47;5021063;28;20171;-83
2023/12/14 01:14:06;;;;;;;8.73;5.03;;;;;;;4.32;100.00;100163.22;5041534;28;20045;-83
2023/12/14 01:16:33;;;;;;;5.18;4.70;;;;;;;4.40;100.00;100166.75;5045519;28;20072;-84
2023/12/14 01:19:00;;;;;;;5.32;4.13;;;;;;;4.38;100.00;100171.91;5026848;28;20072;-83
2023/12/14 01:21:30;;;;;;;5.85;4.47;;;;;;;4.37;100.00;100171.88;5046039;28;20398;-82
2023/12/14 01:24:01;;;;;;;5.13;4.32;;;;;;;4.32;100.00;100161.47;5032797;28;20049;-84
2023/12/14 01:26:33;;;;;;;5.15;3.92;;;;;;;4.08;100.00;100172.47;5028997;28;20049;-83
2023/12/14 01:29:00;;;;;;;6.53;4.22;;;;;;;4.13;100.00;100183.75;5012799;28;20084;-82
2023/12/14 01:31:33;;;;;;;4.63;3.90;;;;;;;4.14;100.00;100185.50;5025912;28;20048;-84
2023/12/14 01:34:00;;;;;;;5.13;4.57;;;;;;;4.20;100.00;100182.09;5028158;28;20140;-83
2023/12/14 01:36:30;;;;;;;4.38;3.63;;;;;;;4.20;100.00;100189.84;5026018;28;20695;-82
2023/12/14 01:38:57;;;;;;;4.90;4.40;;;;;;;4.13;100.00;100199.28;5022662;28;20063;-83
2023/12/14 01:41:23;;;;;;;5.22;4.30;;;;;;;4.00;100.00;100200.03;5025259;28;20057;-83
2023/12/14 01:44:07;;;;;;;6.00;4.55;;;;;;;3.96;100.00;100202.59;5045040;28;20915;-83
2023/12/14 01:46:34;;;;;;;6.63;4.38;;;;;;;3.91;100.00;100208.56;5024694;28;20048;-83
2023/12/14 01:49:03;;;;;;;6.00;5.03;;;;;;;3.81;100.00;100218.81;5040976;28;20078;-83
2023/12/14 01:51:33;;;;;;;8.18;4.70;;;;;;;4.02;100.00;100226.84;5019372;28;20049;-83
2023/12/14 01:54:00;;;;;;;6.22;4.88;;;;;;;4.08;100.00;100226.88;5026526;28;20517;-82
2023/12/14 01:56:34;;;;;;;7.60;5.30;;;;;;;4.13;100.00;100225.19;5028900;28;20048;-83
2023/12/14 01:59:04;;;;;;;8.98;5.80;;;;;;;4.17;100.00;100223.50;5038147;28;20133;-84
2023/12/14 02:01:45;;;;;;;6.95;4.78;;;;;;;4.22;100.00;100227.03;5038571;28;20056;-82
2023/12/14 02:04:14;;;;;;;7.97;4.40;;;;;;;4.19;100.00;100229.59;5038327;28;20400;-83
2023/12/14 02:06:44;;;;;;;8.05;4.88;;;;;;;4.06;100.00;100236.38;5020074;28;20045;-83
2023/12/14 02:09:11;;;;;;;7.38;4.75;;;;;;;4.08;100.00;100238.13;5039482;28;20045;-84
2023/12/14 02:11:43;;;;;;;6.53;4.63;;;;;;;3.67;100.00;100245.41;5022557;28;20099;-83
2023/12/14 02:14:10;;;;;;;6.45;4.65;;;;;;;3.80;100.00;100252.47;5047079;28;20048;-84
2023/12/14 02:16:38;;;;;;;6.82;4.38;;;;;;;3.79;100.00;100248.13;5020486;28;20095;-82
2023/12/14 02:19:07;;;;;;;7.25;4.90;;;;;;;3.79;100.00;100251.59;5039129;28;20049;-82
2023/12/14 02:21:34;;;;;;;8.52;4.75;;;;;;;3.78;100.00;100251.56;5016682;28;20081;-82
2023/12/14 02:24:01;;;;;;;7.18;4.90;;;;;;;3.78;100.00;100256.75;5039565;28;20533;-82
2023/12/14 02:26:27;;;;;;;7.63;4.72;;;;;;;3.87;100.00;100259.47;5042457;28;20136;-81
2023/12/14 02:28:56;;;;;;;6.88;4.45;;;;;;;3.79;100.00;100261.97;5028162;28;20055;-81
2023/12/14 02:31:24;;;;;;;6.70;5.40;;;;;;;3.88;100.00;100252.56;5038112;28;20656;-81
2023/12/14 02:33:53;;;;;;;9.20;4.68;;;;;;;3.93;100.00;100266.44;5023775;28;20137;-83
2023/12/14 02:36:19;;;;;;;8.35;4.95;;;;;;;3.98;100.00;100275.97;5040188;28;20055;-82
2023/12/14 02:38:48;;;;;;;6.75;5.68;;;;;;;4.07;100.00;100282.16;5041673;28;20163;-83
2023/12/14 02:41:15;;;;;;;9.15;5.22;;;;;;;4.10;100.00;100282.16;5018719;28;20404;-82
2023/12/14 02:43:42;;;;;;;9.63;4.90;;;;;;;4.19;100.00;100292.63;5022835;28;20493;-82
2023/12/14 02:46:15;;;;;;;7.95;5.40;;;;;;;4.01;100.00;100289.84;5020175;28;20045;-82
2023/12/14 02:48:45;;;;;;;5.70;4.70;;;;;;;3.92;100.00;100288.00;5026299;28;20049;-83
2023/12/14 02:51:15;;;;;;;8.02;5.25;;;;;;;3.86;100.00;100298.25;5023970;28;20138;-81
2023/12/14 02:53:43;;;;;;;7.82;5.00;;;;;;;3.78;100.00;100300.75;5024440;28;20053;-83
2023/12/14 02:56:11;;;;;;;18.98;6.70;;;;;;;3.84;100.00;100298.25;5035384;28;20037;-83
2023/12/14 02:58:38;;;;;;;6.75;4.60;;;;;;;3.90;100.00;100303.53;5004809;28;20494;-82
2023/12/14 03:01:05;;;;;;;8.93;6.97;;;;;;;4.06;100.00;100306.31;5000954;28;20046;-82
2023/12/14 03:03:31;;;;;;;9.00;5.13;;;;;;;4.01;100.00;100308.81;5015460;28;20144;-81
2023/12/14 03:06:04;;;;;;;6.55;4.85;;;;;;;4.02;100.00;100309.72;5017104;28;20506;-81
2023/12/14 03:08:30;;;;;;;4.85;4.25;;;;;;;4.05;100.00;100308.00;5027454;28;20048;-81
2023/12/14 03:10:57;;;;;;;7.72;5.05;;;;;;;3.97;100.00;100313.09;5020581;28;20033;-81
2023/12/14 03:13:23;;;;;;;7.40;5.32;;;;;;;3.97;100.00;100307.06;5037802;28;20061;-83
2023/12/14 03:15:51;;;;;;;7.20;5.30;;;;;;;4.05;100.00;100318.38;5007955;28;20490;-82
2023/12/14 03:18:18;;;;;;;8.90;6.47;;;;;;;3.96;100.00;100318.25;5007512;28;20475;-83
2023/12/14 03:20:44;;;;;;;6.05;5.32;;;;;;;4.07;100.00;100319.25;5022709;28;20053;-82
2023/12/14 03:23:11;;;;;;;8.57;6.03;;;;;;;4.03;100.00;100326.97;5001725;28;20057;-82
2023/12/14 03:25:41;;;;;;;8.63;5.47;;;;;;;4.03;100.00;100322.69;5005596;28;20157;-82
2023/12/14 03:28:10;;;;;;;7.47;5.03;;;;;;;4.03;100.00;100317.50;5024648;28;20049;-82
2023/12/14 03:30:36;;;;;;;7.57;5.43;;;;;;;4.14;100.00;100327.97;5019802;28;20054;-83
2023/12/14 03:33:06;;;;;;;9.00;5.75;;;;;;;4.18;100.00;100329.75;4994938;28;20077;-82
2023/12/14 03:35:33;;;;;;;6.78;6.03;;;;;;;4.14;100.00;100335.75;5008949;28;20080;-82
2023/12/14 03:38:00;;;;;;;5.85;5.18;;;;;;;4.18;100.00;100339.25;5022926;28;20049;-83
2023/12/14 03:40:27;;;;;;;8.45;5.32;;;;;;;4.19;100.00;100341.84;5002707;28;20660;-83
2023/12/14 03:42:54;;;;;;;5.93;4.93;;;;;;;4.24;100.00;100342.78;5018815;28;20037;-83
2023/12/14 03:45:20;;;;;;;6.35;5.22;;;;;;;4.28;100.00;100343.69;5018569;28;20597;-83
2023/12/14 03:47:55;;;;;;;6.20;5.07;;;;;;;4.20;100.00;100347.91;5021290;28;20042;-82
2023/12/14 03:50:24;;;;;;;5.85;4.72;;;;;;;4.00;100.00;100340.75;5010018;28;20041;-83
2023/12/14 03:52:51;;;;;;;5.95;4.90;;;;;;;4.02;100.00;100340.78;5017623;28;20592;-81
2023/12/14 03:55:17;;;;;;;8.68;4.55;;;;;;;4.10;100.00;100354.69;5006432;28;20073;-81
2023/12/14 03:57:49;;;;;;;5.95;4.93;;;;;;;4.18;100.00;100359.97;5011317;28;20050;-82
2023/12/14 04:00:17;;;;;;;5.38;4.60;;;;;;;4.13;100.00;100363.38;5034084;28;20123;-83
2023/12/14 04:02:45;;;;;;;7.07;4.32;;;;;;;4.24;100.00;100373.88;5001623;28;20128;-83
2023/12/14 04:05:12;;;;;;;5.68;4.82;;;;;;;4.23;100.00;100372.13;5007961;28;20049;-82
2023/12/14 04:07:40;;;;;;;4.75;4.35;;;;;;;4.25;100.00;100382.50;5007834;28;20482;-82
2023/12/14 04:10:12;;;;;;;5.22;4.10;;;;;;;4.15;100.00;100386.72;5017527;28;20053;-82
2023/12/14 04:12:40;;;;;;;5.82;4.55;;;;;;;4.13;100.00;100394.47;4998788;28;20791;-81
2023/12/14 04:15:09;;;;;;;5.63;4.53;;;;;;;4.08;100.00;100400.44;5004828;28;20156;-81
2023/12/14 04:17:36;;;;;;;5.65;4.43;;;;;;;4.01;100.00;100398.63;5023366;28;20053;-81
2023/12/14 04:20:04;;;;;;;5.68;4.72;;;;;;;4.04;100.00;100403.81;5022474;28;20056;-82
2023/12/14 04:22:32;;;;;;;7.25;5.28;;;;;;;4.02;100.00;100410.72;5017137;28;20057;-81
2023/12/14 04:25:01;;;;;;;6.68;5.13;;;;;;;4.10;100.00;100416.88;5034582;28;20433;-81
2023/12/14 04:27:30;;;;;;;5.85;4.70;;;;;;;4.16;100.00;100411.78;5004344;28;20045;-81
2023/12/14 04:29:57;;;;;;;10.27;5.38;;;;;;;3.98;100.00;100423.59;5005872;28;20861;-81
2023/12/14 04:32:23;;;;;;;8.65;4.80;;;;;;;3.91;100.00;100418.31;4985937;28;20743;-80
2023/12/14 04:34:50;;;;;;;8.18;4.53;;;;;;;3.93;100.00;100424.41;5000000;28;20053;-82
2023/12/14 04:37:22;;;;;;;5.60;4.68;;;;;;;3.80;100.00;100420.75;5008504;28;20060;-82
2023/12/14 04:39:54;;;;;;;4.05;3.65;;;;;;;3.87;100.00;100429.50;5022892;28;20053;-80
2023/12/14 04:42:24;;;;;;;5.05;4.55;;;;;;;3.86;100.00;100430.31;5001864;28;20200;-82
2023/12/14 04:44:50;;;;;;;5.53;4.53;;;;;;;3.82;100.00;100442.38;5020637;28;20069;-82
2023/12/14 04:47:17;;;;;;;4.88;3.83;;;;;;;3.90;100.00;100440.78;5018257;28;20045;-83
2023/12/14 04:49:45;;;;;;;6.90;4.03;;;;;;;3.94;100.00;100449.47;5009725;28;20058;-80
2023/12/14 04:52:12;;;;;;;7.00;4.30;;;;;;;4.00;100.00;100454.72;5017455;28;20053;-83
2023/12/14 04:54:40;;;;;;;5.95;4.50;;;;;;;4.08;100.00;100465.19;5003925;28;20060;-83
2023/12/14 04:57:07;;;;;;;7.05;5.13;;;;;;;4.16;100.00;100457.53;5007174;28;20387;-82
2023/12/14 04:59:33;;;;;;;4.65;4.25;;;;;;;3.87;100.00;100461.44;5009374;28;20058;-82
2023/12/14 05:02:00;;;;;;;6.57;5.03;;;;;;;3.82;100.00;100455.34;4998042;28;20500;-82
2023/12/14 05:04:29;;;;;;;8.88;5.53;;;;;;;3.80;100.00;100457.00;5019485;28;20053;-82
2023/12/14 05:06:59;;;;;;;8.73;5.38;;;;;;;3.92;100.00;100469.28;5001003;28;20139;-82
2023/12/14 05:09:27;;;;;;;6.20;3.97;;;;;;;4.02;100.00;100476.34;5017364;28;20045;-81
2023/12/14 05:11:55;;;;;;;5.38;4.00;;;;;;;3.95;100.00;100470.19;5015133;28;20037;-82
2023/12/14 05:14:21;;;;;;;11.73;5.85;;;;;;;3.87;100.00;100470.91;5004908;28;20255;-81
2023/12/14 05:16:48;;;;;;;5.00;4.50;;;;;;;3.93;100.00;100477.06;5003379;28;20087;-81
2023/12/14 05:19:14;;;;;;;5.93;4.28;;;;;;;4.00;100.00;100492.69;5005393;28;20041;-81
2023/12/14 05:21:40;;;;;;;6.57;4.65;;;;;;;4.06;100.00;100492.81;4997476;28;20388;-83
2023/12/14 05:24:07;;;;;;;6.65;4.15;;;;;;;3.98;100.00;100500.47;5019005;28;20113;-82
2023/12/14 05:26:34;;;;;;;6.63;4.75;;;;;;;4.15;100.00;100503.28;5020364;28;20095;-82
2023/12/14 05:29:00;;;;;;;7.15;5.10;;;;;;;4.17;100.00;100498.13;5019781;28;20034;-82
2023/12/14 05:31:29;;;;;;;6.15;4.50;;;;;;;4.14;100.00;100509.31;5002098;28;20542;-81
2023/12/14 05:33:57;;;;;;;5.65;4.57;;;;;;;4.17;100.00;100509.34;5017897;28;20091;-82
2023/12/14 05:36:24;;;;;;;5.43;4.75;;;;;;;4.08;100.00;100517.00;5007892;28;20052;-81
2023/12/14 05:38:51;;;;;;;6.88;4.85;;;;;;;4.17;100.00;100518.84;5023475;28;20045;-82
2023/12/14 05:41:19;;;;;;;5.82;4.88;;;;;;;4.20;100.00;100524.97;5018697;28;20505;-81
2023/12/14 05:43:46;;;;;;;6.70;4.90;;;;;;;4.26;100.00;100521.59;5019474;28;20041;-81
2023/12/14 05:46:24;;;;;;;5.85;4.78;;;;;;;4.29;100.00;100526.84;5019135;28;20823;-81
2023/12/14 05:48:51;;;;;;;5.95;4.47;;;;;;;4.25;100.00;100535.38;5001437;28;20053;-82
2023/12/14 05:51:31;;;;;;;9.95;5.65;;;;;;;4.18;100.00;100541.34;5016383;28;20042;-82
2023/12/14 05:53:57;;;;;;;3.80;3.50;;;;;;;4.22;100.00;100541.38;5003530;28;20050;-83
2023/12/14 05:56:26;;;;;;;6.55;3.90;;;;;;;4.27;100.00;100542.34;5003545;28;20041;-82
2023/12/14 05:58:53;;;;;;;7.53;4.30;;;;;;;4.23;100.00;100550.06;5015513;28;20073;-82
2023/12/14 06:01:20;;;;;;;32.03;7.80;;;;;;;4.30;100.00;100557.06;5002894;28;20049;-83
2023/12/14 06:03:47;;;;;;;5.93;4.80;;;;;;;4.32;100.00;100555.38;4998413;28;20056;-82
2023/12/14 06:06:14;;;;;;;4.40;3.92;;;;;;;4.30;100.00;100555.34;5032437;28;20041;-81
2023/12/14 06:08:41;;;;;;;6.38;5.18;;;;;;;4.27;100.00;100559.59;5016592;28;20057;-84
2023/12/14 06:11:09;;;;;;;9.18;4.85;;;;;;;4.17;100.00;100550.81;5014880;28;20728;-82
2023/12/14 06:13:38;;;;;;;10.65;5.63;;;;;;;4.21;100.00;100557.81;5000561;28;20133;-81
2023/12/14 06:16:12;;;;;;;5.10;4.50;;;;;;;4.15;100.00;100557.69;5021469;28;20185;-81
2023/12/14 06:18:41;;;;;;;;;;;;;;;4.10;100.00;100559.34;5015880;28;20050;-81
2023/12/14 06:21:08;;;;;;;7.13;4.18;;;;;;;4.14;100.00;100566.31;5003490;28;20424;-82
2023/12/14 06:23:36;;;;;;;8.85;4.95;;;;;;;4.21;100.00;100568.16;5003800;28;20410;-81
2023/12/14 06:26:07;;;;;;;4.63;4.07;;;;;;;4.18;100.00;100573.28;5019863;28;20037;-81
2023/12/14 06:28:34;;;;;;;7.97;5.30;;;;;;;4.27;100.00;100588.13;5003025;28;20124;-82
2023/12/14 06:31:01;;;;;;;91.82;10.30;;;;;;;4.26;100.00;100586.38;4996586;28;20053;-82
2023/12/14 06:33:32;;;;;;;12.63;5.30;;;;;;;4.12;100.00;100587.03;4978193;28;20829;-81
2023/12/14 06:35:59;;;;;;;66.20;9.18;;;;;;;4.02;100.00;100584.25;4979014;28;20046;-81
2023/12/14 06:38:25;;;;;;;26.92;5.32;;;;;;;4.02;100.00;100584.25;4977041;28;20734;-81
2023/12/14 06:40:52;;;;;;;81.93;9.57;;;;;;;4.02;100.00;100592.91;4984095;28;20042;-81
2023/12/14 06:43:18;;;;;;;21.85;6.35;;;;;;;3.84;100.00;100598.63;4980700;28;20157;-81
2023/12/14 06:45:47;;;;;;;11.55;5.00;;;;;;;3.86;100.00;100604.72;4967878;28;20058;-81
2023/12/14 06:48:14;;;;;;;4.78;4.07;;;;;;;3.97;100.00;100604.91;4984040;28;20553;-81
2023/12/14 06:50:43;;;;;;;21.80;6.15;;;;;;;4.00;100.00;100606.66;4980677;28;20054;-83
2023/12/14 06:53:10;;;;;;;4.53;4.07;;;;;;;4.10;100.00;100614.59;4967467;28;20136;-83
2023/12/14 06:55:37;;;;;;;5.15;3.85;;;;;;;4.17;100.00;100612.13;4984535;28;20423;-82
2023/12/14 06:58:04;;;;;;;19.70;5.72;;;;;;;4.20;100.00;100614.75;4979806;28;20081;-81
2023/12/14 07:00:30;;;;;;;7.18;5.10;;;;;;;4.24;100.00;100620.03;4952290;28;20054;-81
2023/12/14 07:02:57;;;;;;;7.88;4.65;;;;;;;4.21;100.00;100622.59;4966168;28;20050;-81
2023/12/14 07:05:23;;;;;;;8.52;6.05;;;;;;;4.22;100.00;100632.06;4986412;28;20074;-81
2023/12/14 07:07:50;;;;;;;14.70;6.53;;;;;;;4.30;100.00;100632.22;4973293;28;20060;-82
2023/12/14 07:10:17;;;;;;;6.78;5.43;;;;;;;4.30;100.00;100637.38;4984688;28;20382;-81
2023/12/14 07:12:44;;;;;;;6.93;4.97;;;;;;;4.29;100.00;100641.72;4963137;28;20046;-81
2023/12/14 07:15:10;;;;;;;6.32;4.55;;;;;;;4.17;100.00;100643.22;4962381;28;20038;-81
2023/12/14 07:17:37;;;;;;;8.10;5.07;;;;;;;4.23;100.00;100651.09;4973397;28;20061;-79
2023/12/14 07:20:04;;;;;;;8.48;5.38;;;;;;;4.09;100.00;100651.75;4970128;28;20060;-82
2023/12/14 07:22:31;;;;;;;7.90;4.80;;;;;;;4.13;100.00;100663.91;4983337;28;20141;-81
2023/12/14 07:24:57;;;;;;;8.75;5.10;;;;;;;4.11;100.00;100665.59;4980985;28;20050;-81
2023/12/14 07:27:24;;;;;;;6.97;4.78;;;;;;;4.20;100.00;100671.75;4967725;28;20748;-81
2023/12/14 07:29:50;;;;;;;10.70;5.15;;;;;;;4.23;100.00;100679.59;4966496;28;20074;-81
2023/12/14 07:32:17;;;;;;;8.13;5.45;;;;;;;4.21;100.00;100684.78;4986604;28;20544;-81
2023/12/14 07:34:47;;;;;;;6.18;4.43;;;;;;;4.18;100.00;100686.44;5016769;28;20141;-83
2023/12/14 07:37:15;;;;;;;5.18;4.47;;;;;;;4.26;100.00;100702.97;5020113;28;20111;-81
2023/12/14 07:39:44;;;;;;;9.02;5.03;;;;;;;4.25;100.00;100703.81;5019352;28;20063;-82
2023/12/14 07:42:11;;;;;;;7.53;4.35;;;;;;;4.24;100.00;100708.13;5020084;28;20054;-80
2023/12/14 07:44:40;;;;;;;6.57;4.60;;;;;;;4.18;100.00;100723.56;5021721;28;20172;-81
2023/12/14 07:47:07;;;;;;;5.40;3.80;;;;;;;4.20;100.00;100726.16;5004881;28;20085;-82
2023/12/14 07:49:33;;;;;;;5.70;4.15;;;;;;;4.27;100.00;100735.81;5007468;28;20187;-81
2023/12/14 07:52:00;;;;;;;5.35;4.22;;;;;;;4.29;100.00;100726.38;5017223;28;20068;-82
2023/12/14 07:54:26;;;;;;;7.22;3.90;;;;;;;4.19;100.00;100733.09;5010327;28;20498;-82
2023/12/14 07:56:53;;;;;;;6.68;4.70;;;;;;;4.19;100.00;100742.59;5004659;28;20128;-81
2023/12/14 07:59:20;;;;;;;4.65;3.53;;;;;;;4.13;100.00;100745.91;5006667;28;20052;-82
2023/12/14 08:01:47;;;;;;;5.28;3.28;;;;;;;4.14;100.00;100745.94;5019527;28;20048;-83
2023/12/14 08:04:23;;;;;;;6.82;4.65;;;;;;;4.10;100.00;100759.69;5020532;28;20049;-82
2023/12/14 08:06:50;;;;;;;4.80;4.00;;;;;;;4.14;100.00;100766.66;5022095;28;20056;-81
2023/12/14 08:09:16;;;;;;;7.80;4.65;;;;;;;4.09;100.00;100763.16;5002455;28;20048;-81
2023/12/14 08:11:43;;;;;;;5.05;4.18;;;;;;;4.20;100.00;100762.44;5003687;28;20053;-82
2023/12/14 08:14:09;;;;;;;8.23;4.55;;;;;;;4.23;100.00;100772.91;5002219;28;20066;-81
2023/12/14 08:16:36;;;;;;;13.02;5.72;;;;;;;4.24;100.00;100774.66;5008491;28;20510;-81
2023/12/14 08:19:02;;;;;;;6.18;4.00;;;;;;;4.24;100.00;100772.91;5021124;28;20052;-81
2023/12/14 08:21:29;;;;;;;4.88;3.95;;;;;;;4.25;100.00;100777.25;5006758;28;20052;-83
2023/12/14 08:23:55;;;;;;;6.38;4.47;;;;;;;4.18;100.00;100785.75;5004603;28;20056;-82
2023/12/14 08:26:24;;;;;;;7.28;4.82;;;;;;;4.18;100.00;100792.66;5021138;28;20159;-82
2023/12/14 08:28:53;;;;;;;6.00;3.78;;;;;;;4.01;100.00;100803.56;5006152;28;20069;-81
2023/12/14 08:31:21;;;;;;;5.43;3.92;;;;;;;4.10;100.00;100803.72;5023809;28;20537;-83
2023/12/14 08:33:54;;;;;;;5.43;3.83;;;;;;;4.19;100.00;100807.38;5009021;28;20034;-84
2023/12/14 08:36:31;;;;;;;3.72;3.38;;;;;;;4.10;100.00;100813.22;5013653;28;20562;-82
2023/12/14 08:39:04;;;;;;;5.13;3.83;;;;;;;4.14;100.00;100815.03;5042398;28;20140;-83
2023/12/14 08:41:34;;;;;;;4.35;3.47;;;;;;;4.10;100.00;100819.28;5006650;28;20053;-84
2023/12/14 08:44:07;;;;;;;6.50;4.20;;;;;;;4.21;100.00;100827.28;5011478;28;20046;-83
2023/12/14 08:46:47;;;;;;;6.07;4.47;;;;;;;4.18;100.00;100831.53;5006395;28;20156;-82
2023/12/14 08:49:18;;;;;;;7.65;3.85;;;;;;;4.20;100.00;100842.78;5011752;28;20045;-82
2023/12/14 08:51:47;;;;;;;11.10;4.03;;;;;;;4.21;100.00;100847.13;5021072;28;20045;-84
2023/12/14 08:54:17;;;;;;;4.72;4.15;;;;;;;4.18;100.00;100847.94;5006657;28;20126;-83
2023/12/14 08:56:52;;;;;;;5.40;4.22;;;;;;;4.18;100.00;100850.53;5005965;28;20038;-84
2023/12/14 08:59:26;;;;;;;5.90;4.32;;;;;;;4.23;100.00;100854.09;5024024;28;20141;-84
2023/12/14 09:01:58;;;;;;;4.75;4.05;;;;;;;4.26;100.00;100861.94;5020963;28;20050;-82
2023/12/14 09:04:24;;;;;;;7.00;3.63;;;;;;;4.32;100.00;100868.94;5022018;28;20069;-80
2023/12/14 09:06:51;;;;;;;5.45;3.63;;;;;;;4.33;100.00;100868.13;5022428;28;20045;-82
2023/12/14 09:09:18;;;;;;;3.58;3.28;;;;;;;4.28;100.00;100875.78;5005249;28;20054;-83
2023/12/14 09:11:50;;;;;;;3.33;3.03;;;;;;;4.30;100.00;100870.63;5005677;28;20107;-83
2023/12/14 09:14:17;;;;;;;5.85;3.17;;;;;;;4.36;100.00;100878.53;5002249;28;20041;-83
2023/12/14 09:16:44;;;;;;;5.70;3.35;;;;;;;4.43;100.00;100885.59;5019639;28;20045;-82
2023/12/14 09:19:11;;;;;;;6.00;3.47;;;;;;;4.43;100.00;100889.91;5005598;28;20524;-83
2023/12/14 09:21:38;;;;;;;6.60;3.00;;;;;;;4.47;100.00;100883.91;5015714;28;20430;-83
2023/12/14 09:24:05;;;;;;;4.80;3.72;;;;;;;4.46;100.00;100889.97;5008566;28;20081;-83
2023/12/14 09:26:32;;;;;;;4.40;2.45;;;;;;;4.51;100.00;100892.63;5008785;28;20525;-83
2023/12/14 09:28:59;;;;;;;4.50;3.63;;;;;;;4.48;100.00;100896.03;5008664;28;20045;-82
2023/12/14 09:31:25;;;;;;;2.95;2.67;;;;;;;4.51;100.00;100897.81;5018428;28;20061;-81
2023/12/14 09:33:55;;;;;;;4.70;3.03;;;;;;;4.53;100.00;100909.97;5003726;28;20042;-83
2023/12/14 09:36:21;;;;;;;5.43;3.72;;;;;;;4.46;100.00;100910.72;5023930;28;20056;-82
2023/12/14 09:38:51;;;;;;;3.67;3.20;;;;;;;4.43;100.00;100911.53;5006385;28;20081;-81
2023/12/14 09:41:20;;;;;;;5.07;3.28;;;;;;;4.44;100.00;100912.38;5016960;28;20120;-83
2023/12/14 09:43:49;;;;;;;8.15;3.92;;;;;;;4.51;100.00;100910.78;5004466;28;20052;-82
2023/12/14 09:46:18;;;;;;;3.78;3.42;;;;;;;4.53;100.00;100916.88;5019499;28;20136;-83
2023/12/14 09:48:47;;;;;;;9.05;4.15;;;;;;;4.64;100.00;100924.03;5006247;28;20061;-82
2023/12/14 09:51:14;;;;;;;5.00;2.58;;;;;;;4.73;100.00;100923.34;5021255;28;20042;-82
2023/12/14 09:53:41;;;;;;;6.28;3.35;;;;;;;4.73;100.00;100931.13;5024946;28;20057;-82
2023/12/14 09:56:08;;;;;;;2.70;2.50;;;;;;;4.73;100.00;100933.72;5006029;28;20045;-83
2023/12/14 09:58:35;;;;;;;3.90;3.22;;;;;;;4.68;100.00;100937.06;5011567;28;20087;-83
2023/12/14 10:01:04;;;;;;;3.63;2.95;;;;;;;4.72;100.00;100941.44;5023372;28;20053;-82
2023/12/14 10:03:32;;;;;;;3.65;2.72;;;;;;;4.71;100.00;100935.41;5005518;28;20048;-81
2023/12/14 10:06:02;;;;;;;3.70;3.00;;;;;;;4.71;100.00;100942.31;5021171;28;20053;-83
2023/12/14 10:08:30;;;;;;;3.75;2.85;;;;;;;4.77;100.00;100951.09;5021016;28;20755;-83
2023/12/14 10:10:56;;;;;;;3.50;2.80;;;;;;;4.84;100.00;100946.00;5001894;28;20518;-81
2023/12/14 10:13:38;;;;;;;5.15;3.17;;;;;;;4.84;100.00;100949.47;5003159;28;20839;-82
2023/12/14 10:16:05;;;;;;;5.05;3.38;;;;;;;4.75;100.00;100944.13;5012460;28;20046;-82
2023/12/14 10:18:35;;;;;;;5.05;3.25;;;;;;;4.80;100.00;100945.94;5022663;28;20118;-80
2023/12/14 10:21:04;;;;;;;3.58;2.85;;;;;;;4.79;100.00;100951.13;5007932;28;20104;-81
2023/12/14 10:23:31;;;;;;;5.60;3.67;;;;;;;4.86;100.00;100952.09;5004396;28;20111;-82
2023/12/14 10:25:58;;;;;;;4.78;3.00;;;;;;;4.90;100.00;100959.97;5017767;28;20889;-83
2023/12/14 10:28:25;;;;;;;4.75;2.88;;;;;;;4.93;100.00;100960.03;5019681;28;20056;-82
2023/12/14 10:30:52;;;;;;;3.53;3.00;;;;;;;5.04;100.00;100968.00;5020421;28;20103;-81
2023/12/14 10:33:19;;;;;;;9.70;3.30;;;;;;;4.93;100.00;100966.94;5003582;28;20056;-83
2023/12/14 10:35:47;;;;;;;4.53;2.95;;;;;;;4.93;100.00;100973.00;5017047;28;20049;-80
2023/12/14 10:38:16;;;;;;;3.35;2.03;;;;;;;4.98;100.00;100975.69;5001906;28;20054;-82
2023/12/14 10:40:46;;;;;;;3.53;2.88;;;;;;;5.01;100.00;100990.44;5019093;28;20494;-83
2023/12/14 10:43:13;;;;;;;6.78;3.40;;;;;;;5.07;100.00;100994.03;5008721;28;20053;-83
2023/12/14 10:45:44;;;;;;;3.92;2.65;;;;;;;5.10;100.00;100996.69;5024457;28;20049;-83
2023/12/14 10:48:13;;;;;;;3.55;2.90;;;;;;;5.00;100.00;100993.88;5024141;28;20155;-81
2023/12/14 10:50:43;;;;;;;8.45;2.97;;;;;;;4.98;100.00;101001.66;5008157;28;20054;-82
2023/12/14 10:53:13;;;;;;;7.10;3.33;;;;;;;4.96;100.00;101005.91;5001505;28;20053;-81
2023/12/14 10:55:44;;;;;;;4.38;2.92;;;;;;;4.89;100.00;101002.31;5007467;28;20414;-81
2023/12/14 10:58:20;;;;;;;3.72;3.25;;;;;;;4.91;100.00;101010.13;5000287;28;20117;-82
2023/12/14 11:01:04;;;;;;;6.35;3.05;;;;;;;4.97;100.00;101010.25;5031173;28;20077;-83
2023/12/14 11:03:37;;;;;;;7.90;3.58;;;;;;;5.04;100.00;101016.44;5018728;28;20602;-82
2023/12/14 11:06:46;;;;;;;5.05;4.00;;;;;;;5.01;100.00;101017.25;5005543;28;20573;-83
2023/12/14 11:09:15;;;;;;;11.75;3.70;;;;;;;5.03;100.00;101019.88;5036979;28;20466;-80
2023/12/14 11:11:56;;;;;;;5.75;4.30;;;;;;;5.01;100.00;101019.00;5021023;28;20901;-80
2023/12/14 11:14:25;;;;;;;7.57;3.58;;;;;;;5.00;100.00;101015.50;5017686;28;20148;-81
2023/12/14 11:16:56;;;;;;;9.05;4.05;;;;;;;5.04;100.00;101025.09;5005334;28;20774;-82
2023/12/14 11:19:22;;;;;;;4.97;3.20;;;;;;;5.06;100.00;101017.34;4998382;28;20059;-82
2023/12/14 11:22:18;;;;;;;6.00;2.88;;;;;;;5.07;100.00;101019.97;5016908;28;20524;-81
2023/12/14 11:24:54;;;;;;;11.00;3.70;;;;;;;4.94;100.00;101024.06;5006831;28;20571;-83
2023/12/14 11:27:29;;;;;;;3.92;2.72;;;;;;;5.01;100.00;101026.78;5023175;28;20386;-83
2023/12/14 11:29:57;;;;;;;7.00;4.25;;;;;;;5.04;100.00;101027.69;4988286;28;20168;-82
2023/12/14 11:32:26;;;;;;;4.93;3.55;;;;;;;5.00;100.00;101031.06;5020985;28;20065;-81